Date,TemperatureHighF,TemperatureAvgF,TemperatureLowF,DewpointHighF,DewpointAvgF,DewpointLowF,HumidityHigh,HumidityAvg,HumidityLow,PressureMaxIn,PressureMinIn,WindSpeedMaxMPH,WindSpeedAvgMPH,GustSpeedMaxMPH,PrecipitationSumIn
2013-1-1,14,6,-5,-100,-100,-100,0,0,100,0.00,40.00,0,-999,0,0.00
2013-1-2,19,2,-10,-100,-100,-100,0,0,100,0.00,40.00,0,-999,0,0.00
2013-1-3,25,-2,-15,-100,-100,-100,0,0,100,0.00,40.00,0,-999,0,0.00
2013-1-4,26,2,-13,-100,-100,-100,0,0,100,0.00,40.00,0,-999,0,0.00
2013-1-5,24,0,-14,-100,-100,-100,0,0,100,0.00,40.00,0,-999,0,0.00
2013-1-6,24,10,-5,-100,-100,-100,0,0,100,0.00,40.00,0,-999,0,0.00
2013-1-7,20,12,2,-100,-100,-100,0,0,100,0.00,40.00,0,-999,0,0.00
2013-1-8,27,21,17,-100,-100,-100,0,0,100,0.00,40.00,0,-999,0,0.00
2013-1-9,36,29,22,-100,-100,-100,0,0,100,0.00,40.00,0,-999,0,0.00
2013-1-10,33,24,14,-100,-100,-100,0,0,100,0.00,40.00,0,-999,0,0.00
2013-1-11,13,3,-5,-100,-100,-100,0,0,100,0.00,40.00,0,-999,0,0.00
2013-1-12,7,-5,-19,-100,-100,-100,0,0,100,0.00,40.00,0,-999,0,0.00
2013-1-13,11,-9,-24,-100,-100,-100,0,0,100,0.00,40.00,0,-999,0,0.00
2013-1-14,3,-8,-23,-100,-100,-100,0,0,100,0.00,40.00,0,-999,0,0.00
2013-1-15,9,2,-4,-100,-100,-100,0,0,100,0.00,40.00,0,-999,0,0.00
2013-1-16,19,8,-4,-100,-100,-100,0,0,100,0.00,40.00,0,-999,0,0.00
2013-1-17,32,5,-12,-100,-100,-100,0,0,100,0.00,40.00,0,-999,0,0.00
2013-1-18,32,11,-5,-100,-100,-100,0,0,100,0.00,40.00,0,-999,0,0.00
2013-1-19,25,5,-11,-100,-100,-100,0,0,100,0.00,40.00,0,-999,0,0.00
2013-1-20,33,11,-5,-100,-100,-100,0,0,100,0.00,40.00,0,-999,0,0.00
2013-1-21,32,8,-8,-100,-100,-100,0,0,100,0.00,40.00,0,-999,0,0.00
2013-1-22,31,8,-11,-100,-100,-100,0,0,100,0.00,40.00,0,-999,0,0.00
2013-1-23,41,16,1,-100,-100,-100,0,0,100,0.00,40.00,0,-999,0,0.00
2013-1-24,31,28,21,-100,-100,-100,0,0,100,0.00,40.00,0,-999,0,0.00
2013-1-25,34,31,28,-100,-100,-100,0,0,100,0.00,40.00,0,-999,0,0.00
2013-1-26,37,32,29,-100,-100,-100,0,0,100,0.00,40.00,0,-999,0,0.00
2013-1-27,30,26,18,-100,-100,-100,0,0,100,0.00,40.00,0,-999,0,0.00
2013-1-28,20,15,7,-100,-100,-100,0,0,100,0.00,40.00,0,-999,0,0.00
2013-1-29,21,11,1,-100,-100,-100,0,0,100,0.00,40.00,0,-999,0,0.00
2013-1-30,27,20,9,-100,-100,-100,0,0,100,0.00,40.00,0,-999,0,0.00
2013-1-31,29,26,24,-100,-100,-100,0,0,100,0.00,40.00,0,-999,0,0.00